createdAt,value
2023-05-06T00:00:08.631Z,11.38
2023-05-06T00:02:45.306Z,11.90
2023-05-06T00:05:12.572Z,12.30
2023-05-06T00:07:39.828Z,11.77
2023-05-06T00:10:07.151Z,11.27
2023-05-06T00:12:34.169Z,9.75
2023-05-06T00:15:01.215Z,10.07
2023-05-06T00:17:28.167Z,8.82
2023-05-06T00:19:56.243Z,9.43
2023-05-06T00:22:23.153Z,10.77
2023-05-06T00:24:50.189Z,8.57
2023-05-06T00:27:17.095Z,8.27
2023-05-06T00:29:44.051Z,8.57
2023-05-06T00:32:11.413Z,8.50
2023-05-06T00:34:38.435Z,9.70
2023-05-06T00:37:05.316Z,8.65
2023-05-06T00:39:32.350Z,9.18
2023-05-06T00:42:02.408Z,8.15
2023-05-06T00:44:31.902Z,9.10
2023-05-06T00:47:01.097Z,9.00
2023-05-06T00:49:29.728Z,8.68
2023-05-06T00:51:58.003Z,9.00
2023-05-06T00:54:26.639Z,8.95
2023-05-06T00:56:54.362Z,8.45
2023-05-06T00:59:23.097Z,8.57
2023-05-06T01:01:52.280Z,8.65
2023-05-06T01:04:19.556Z,9.07
2023-05-06T01:07:01.284Z,8.75
2023-05-06T01:10:02.966Z,9.82
2023-05-06T01:12:37.717Z,8.65
2023-05-06T01:15:29.036Z,9.10
2023-05-06T01:17:59.215Z,9.57
2023-05-06T01:20:27.748Z,8.25
2023-05-06T01:22:55.474Z,9.05
2023-05-06T01:25:24.009Z,7.57
2023-05-06T01:27:50.963Z,8.10
2023-05-06T01:30:19.860Z,8.73
2023-05-06T01:32:58.803Z,8.05
2023-05-06T01:35:35.772Z,7.82
2023-05-06T01:38:17.518Z,8.10
2023-05-06T01:40:47.010Z,7.72
2023-05-06T01:43:15.430Z,7.95
2023-05-06T01:45:43.402Z,7.68
2023-05-06T01:48:10.620Z,8.25
2023-05-06T01:50:37.993Z,8.35
2023-05-06T01:53:04.991Z,8.38
2023-05-06T01:55:32.312Z,7.60
2023-05-06T01:57:59.246Z,7.55
2023-05-06T02:00:26.780Z,8.52
2023-05-06T02:02:53.989Z,8.40
2023-05-06T02:05:21.010Z,7.85
2023-05-06T02:07:52.506Z,7.70
2023-05-06T02:10:20.004Z,8.52
2023-05-06T02:12:53.243Z,8.05
2023-05-06T02:15:20.306Z,7.50
2023-05-06T02:17:47.271Z,7.25
2023-05-06T02:20:14.221Z,7.47
2023-05-06T02:22:41.085Z,7.68
2023-05-06T02:25:09.311Z,7.47
2023-05-06T02:27:36.523Z,7.63
2023-05-06T02:30:03.833Z,7.95
2023-05-06T02:32:30.785Z,7.65
2023-05-06T02:34:57.795Z,7.07
2023-05-06T02:37:24.676Z,8.05
2023-05-06T02:42:47.779Z,7.35
2023-05-06T02:45:14.800Z,8.63
2023-05-06T02:47:42.052Z,8.50
2023-05-06T02:50:10.919Z,9.23
2023-05-06T02:52:37.909Z,8.85
2023-05-06T02:55:06.035Z,8.73
2023-05-06T02:57:33.460Z,8.27
2023-05-06T03:00:00.570Z,9.10
2023-05-06T03:02:27.608Z,9.27
2023-05-06T03:04:54.843Z,8.60
2023-05-06T03:07:21.918Z,9.20
2023-05-06T03:09:49.298Z,9.13
2023-05-06T03:12:16.393Z,10.20
2023-05-06T03:14:43.337Z,8.43
2023-05-06T03:17:11.395Z,8.68
2023-05-06T03:19:38.478Z,8.38
2023-05-06T03:22:08.120Z,9.02
2023-05-06T03:24:38.182Z,8.25
2023-05-06T03:27:06.664Z,8.20
2023-05-06T03:29:34.233Z,8.55
2023-05-06T03:32:05.162Z,7.47
2023-05-06T03:34:38.053Z,7.70
2023-05-06T03:37:07.337Z,7.88
2023-05-06T03:39:34.726Z,7.80
2023-05-06T03:42:02.474Z,8.45
2023-05-06T03:44:29.714Z,8.65
2023-05-06T03:46:57.030Z,8.45
2023-05-06T03:49:24.553Z,9.82
2023-05-06T03:51:53.562Z,8.93
2023-05-06T03:54:22.366Z,9.02
2023-05-06T03:56:49.744Z,9.32
2023-05-06T03:59:17.330Z,10.25
2023-05-06T04:01:44.947Z,8.43
2023-05-06T04:04:13.212Z,7.88
2023-05-06T04:06:40.285Z,8.40
2023-05-06T04:09:08.121Z,8.38
2023-05-06T04:11:37.689Z,8.05
2023-05-06T04:14:07.113Z,7.53
2023-05-06T04:16:34.974Z,8.48
2023-05-06T04:19:05.778Z,7.45
2023-05-06T04:21:34.737Z,8.60
2023-05-06T04:24:06.500Z,8.63
2023-05-06T04:26:37.513Z,9.00
2023-05-06T04:29:05.184Z,9.63
2023-05-06T04:31:35.298Z,10.02
2023-05-06T04:34:05.234Z,10.23
2023-05-06T04:36:32.981Z,11.52
2023-05-06T04:39:21.560Z,11.82
2023-05-06T04:41:49.517Z,12.68
2023-05-06T04:44:22.532Z,12.10
2023-05-06T04:46:49.739Z,12.68
2023-05-06T04:49:16.753Z,13.48
2023-05-06T04:51:44.765Z,14.05
2023-05-06T04:54:11.775Z,15.73
2023-05-06T04:56:40.496Z,16.83
2023-05-06T04:59:09.514Z,17.55
2023-05-06T05:01:37.410Z,16.98
2023-05-06T05:04:04.452Z,18.27
2023-05-06T05:06:32.191Z,19.17
2023-05-06T05:09:00.029Z,18.25
2023-05-06T05:11:28.178Z,21.63
2023-05-06T05:13:59.487Z,21.65
2023-05-06T05:16:28.509Z,21.70
2023-05-06T05:18:56.400Z,21.15
2023-05-06T05:21:27.919Z,20.92
2023-05-06T05:23:56.260Z,21.20
2023-05-06T05:26:23.423Z,21.38
2023-05-06T05:28:52.885Z,20.95
2023-05-06T05:31:19.874Z,21.08
2023-05-06T05:33:47.819Z,21.05
2023-05-06T05:36:18.529Z,21.42
2023-05-06T05:38:47.898Z,19.70
2023-05-06T05:41:17.456Z,18.90
2023-05-06T05:43:45.735Z,18.92
2023-05-06T05:46:14.314Z,18.80
2023-05-06T05:48:43.586Z,17.52
2023-05-06T05:51:11.375Z,18.05
2023-05-06T05:53:39.209Z,18.60
2023-05-06T05:56:07.659Z,19.02
2023-05-06T05:58:34.849Z,17.50
2023-05-06T06:01:01.849Z,18.48
2023-05-06T06:03:29.741Z,18.60
2023-05-06T06:05:56.886Z,18.15
2023-05-06T06:08:26.590Z,18.10
2023-05-06T06:10:54.977Z,17.25
2023-05-06T06:13:27.263Z,16.83
2023-05-06T06:15:57.119Z,16.30
2023-05-06T06:18:24.429Z,17.40
2023-05-06T06:20:53.303Z,17.05
2023-05-06T06:23:21.196Z,17.73
2023-05-06T06:25:48.392Z,17.38
2023-05-06T06:28:16.150Z,17.58
2023-05-06T06:30:44.508Z,16.33
2023-05-06T06:33:11.926Z,16.13
2023-05-06T06:35:40.128Z,17.00
2023-05-06T06:38:07.132Z,16.23
2023-05-06T06:40:34.194Z,17.30
2023-05-06T06:43:01.358Z,18.00
2023-05-06T06:45:53.688Z,18.65
2023-05-06T06:48:20.813Z,17.88
2023-05-06T06:50:47.887Z,17.90
2023-05-06T06:53:14.886Z,17.73
2023-05-06T06:55:45.847Z,17.58
2023-05-06T06:58:13.009Z,16.88
2023-05-06T07:00:39.938Z,15.40
2023-05-06T07:03:06.957Z,15.60
2023-05-06T07:05:33.996Z,16.23
2023-05-06T07:08:01.056Z,15.57
2023-05-06T07:10:28.107Z,15.77
2023-05-06T07:12:55.179Z,14.90
2023-05-06T07:15:22.304Z,14.35
2023-05-06T07:17:49.348Z,14.70
2023-05-06T07:20:16.400Z,14.02
2023-05-06T07:22:44.530Z,13.45
2023-05-06T07:25:12.002Z,12.82
2023-05-06T07:27:39.064Z,12.00
2023-05-06T07:30:06.966Z,12.32
2023-05-06T07:32:34.045Z,12.40
2023-05-06T07:35:01.713Z,11.52
2023-05-06T07:37:28.727Z,12.45
2023-05-06T07:39:57.507Z,12.50
2023-05-06T07:42:24.672Z,11.60
2023-05-06T07:44:51.672Z,12.38
2023-05-06T07:47:28.433Z,11.82
2023-05-06T07:49:56.413Z,12.30
2023-05-06T07:52:24.072Z,11.38
2023-05-06T07:54:51.267Z,10.23
2023-05-06T07:57:18.272Z,8.93
2023-05-06T07:59:48.740Z,9.15
2023-05-06T08:02:16.270Z,8.80
2023-05-06T08:04:43.616Z,8.98
2023-05-06T08:07:11.644Z,8.80
2023-05-06T08:09:38.668Z,8.60
2023-05-06T08:12:06.159Z,8.25
2023-05-06T08:14:33.298Z,8.43
2023-05-06T08:17:00.345Z,8.05
2023-05-06T08:19:27.406Z,8.18
2023-05-06T08:21:54.444Z,7.30
2023-05-06T08:24:21.350Z,7.85
2023-05-06T08:26:48.297Z,7.15
2023-05-06T08:29:15.788Z,7.43
2023-05-06T08:31:43.643Z,8.60
2023-05-06T08:34:10.690Z,7.38
2023-05-06T08:36:37.994Z,8.73
2023-05-06T08:39:06.116Z,8.75
2023-05-06T08:41:37.368Z,7.40
2023-05-06T08:44:05.965Z,7.70
2023-05-06T08:46:33.063Z,8.50
2023-05-06T08:49:00.504Z,8.13
2023-05-06T08:51:31.870Z,8.50
2023-05-06T08:54:02.917Z,8.52
2023-05-06T08:56:33.243Z,8.15
2023-05-06T08:59:01.411Z,8.57
2023-05-06T09:01:29.233Z,7.95
2023-05-06T09:03:57.711Z,7.25
2023-05-06T09:06:25.415Z,7.32
2023-05-06T09:08:52.634Z,6.68
2023-05-06T09:11:24.725Z,7.25
2023-05-06T09:14:07.137Z,6.60
2023-05-06T09:16:34.292Z,6.28
2023-05-06T09:19:01.374Z,6.70
2023-05-06T09:21:40.308Z,6.90
2023-05-06T09:24:09.549Z,5.95
2023-05-06T09:26:38.651Z,6.50
2023-05-06T09:29:06.791Z,7.07
2023-05-06T09:31:40.027Z,5.88
2023-05-06T09:34:07.689Z,6.00
2023-05-06T09:36:35.218Z,5.85
2023-05-06T09:39:02.269Z,5.75
2023-05-06T09:41:29.764Z,6.15
2023-05-06T09:43:58.224Z,5.68
2023-05-06T09:46:27.797Z,5.00
2023-05-06T09:48:57.267Z,4.80
2023-05-06T09:51:24.542Z,4.55
2023-05-06T09:53:52.597Z,5.85
2023-05-06T09:56:21.854Z,5.25
2023-05-06T09:58:50.191Z,5.22
2023-05-06T10:01:32.543Z,4.10
2023-05-06T10:04:06.378Z,3.75
2023-05-06T10:06:36.897Z,2.85
2023-05-06T10:09:06.400Z,3.40
2023-05-06T10:11:33.945Z,1.83
2023-05-06T10:14:02.411Z,3.22
2023-05-06T10:16:30.078Z,3.55
2023-05-06T10:18:59.286Z,2.13
2023-05-06T10:21:29.389Z,6.18
2023-05-06T10:24:09.195Z,5.55
2023-05-06T10:26:38.147Z,4.40
2023-05-06T10:29:09.908Z,3.75
2023-05-06T10:31:48.525Z,2.55
2023-05-06T10:34:19.808Z,4.10
2023-05-06T10:36:50.801Z,3.65
2023-05-06T10:39:18.425Z,4.30
2023-05-06T10:41:45.618Z,4.35
2023-05-06T10:44:13.624Z,5.00
2023-05-06T10:46:58.869Z,4.30
2023-05-06T10:49:26.812Z,5.80
2023-05-06T10:52:13.870Z,7.32
2023-05-06T10:54:51.697Z,5.40
2023-05-06T10:57:20.896Z,4.50
2023-05-06T10:59:49.017Z,5.80
2023-05-06T11:02:20.465Z,4.70
2023-05-06T11:04:53.209Z,5.03
2023-05-06T11:07:24.304Z,4.90
2023-05-06T11:09:59.581Z,5.82
2023-05-06T11:12:51.690Z,5.05
2023-05-06T11:15:38.750Z,4.78
2023-05-06T11:18:34.034Z,3.75
2023-05-06T11:21:03.681Z,3.90
2023-05-06T11:23:43.103Z,4.65
2023-05-06T11:26:11.634Z,5.20
2023-05-06T11:28:39.604Z,5.57
2023-05-06T11:31:07.956Z,6.22
2023-05-06T11:33:36.735Z,7.90
2023-05-06T11:36:04.901Z,7.25
2023-05-06T11:38:46.158Z,8.75
2023-05-06T11:41:14.105Z,7.10
2023-05-06T11:43:52.521Z,5.63
2023-05-06T11:46:21.315Z,6.75
2023-05-06T11:48:48.469Z,8.00
2023-05-06T11:51:16.364Z,7.75
2023-05-06T11:53:43.399Z,6.65
2023-05-06T11:56:10.300Z,6.43
2023-05-06T11:58:37.236Z,6.63
2023-05-06T12:01:04.774Z,7.30
2023-05-06T12:03:34.098Z,6.35
2023-05-06T12:06:01.526Z,4.72
2023-05-06T12:08:35.091Z,6.22
2023-05-06T12:11:04.920Z,5.53
2023-05-06T12:13:32.128Z,4.20
2023-05-06T12:16:01.593Z,4.90
2023-05-06T12:18:29.200Z,4.22
2023-05-06T12:20:57.385Z,5.63
2023-05-06T12:23:24.568Z,5.35
2023-05-06T12:26:04.300Z,7.32
2023-05-06T12:28:33.100Z,7.65
2023-05-06T12:31:01.625Z,7.00
2023-05-06T12:33:29.831Z,6.43
2023-05-06T12:36:07.476Z,5.70
2023-05-06T12:38:34.510Z,6.78
2023-05-06T12:41:01.437Z,9.80
2023-05-06T12:43:32.825Z,6.35
2023-05-06T12:46:07.623Z,9.55
2023-05-06T12:48:36.004Z,6.60
2023-05-06T12:51:19.526Z,6.38
2023-05-06T12:53:46.786Z,5.70
2023-05-06T12:56:13.984Z,9.10
2023-05-06T12:58:41.308Z,5.00
2023-05-06T13:01:08.460Z,4.57
2023-05-06T13:03:38.616Z,7.15
2023-05-06T13:06:06.300Z,6.80
2023-05-06T13:08:33.994Z,3.80
2023-05-06T13:11:02.678Z,3.88
2023-05-06T13:13:29.672Z,4.30
2023-05-06T13:15:57.204Z,5.40
2023-05-06T13:18:24.212Z,4.55
2023-05-06T13:20:51.948Z,5.38
2023-05-06T13:23:19.724Z,4.90
2023-05-06T13:26:00.717Z,4.60
2023-05-06T13:28:32.202Z,6.17
2023-05-06T13:30:59.673Z,6.50
2023-05-06T13:33:26.681Z,5.90
2023-05-06T13:35:53.842Z,4.43
2023-05-06T13:38:21.131Z,4.70
2023-05-06T13:40:50.870Z,5.50
2023-05-06T13:43:18.603Z,5.25
2023-05-06T13:45:45.653Z,5.38
2023-05-06T13:48:13.527Z,3.40
2023-05-06T13:50:45.225Z,3.72
2023-05-06T13:53:13.329Z,4.93
2023-05-06T13:55:41.405Z,3.75
2023-05-06T13:58:08.594Z,3.60
2023-05-06T14:00:36.389Z,3.53
2023-05-06T14:03:03.542Z,3.45
2023-05-06T14:05:30.669Z,2.95
2023-05-06T14:07:57.512Z,2.58
2023-05-06T14:10:24.509Z,3.17
2023-05-06T14:12:54.809Z,3.25
2023-05-06T14:15:22.161Z,4.82
2023-05-06T14:17:49.112Z,4.10
2023-05-06T14:20:16.302Z,4.15
2023-05-06T14:22:44.095Z,3.83
2023-05-06T14:25:11.518Z,3.42
2023-05-06T14:27:38.745Z,3.13
2023-05-06T14:30:09.003Z,3.05
2023-05-06T14:32:37.118Z,3.53
2023-05-06T14:35:04.491Z,3.35
2023-05-06T14:37:31.426Z,3.25
2023-05-06T14:39:58.425Z,4.20
2023-05-06T14:42:25.445Z,2.65
2023-05-06T14:44:52.388Z,3.60
2023-05-06T14:47:19.401Z,2.70
2023-05-06T14:49:46.326Z,3.45
2023-05-06T14:52:13.356Z,3.13
2023-05-06T14:54:43.872Z,2.95
2023-05-06T14:57:11.836Z,3.80
2023-05-06T14:59:38.913Z,3.17
2023-05-06T15:02:08.777Z,2.90
2023-05-06T15:04:36.655Z,3.53
2023-05-06T15:07:03.759Z,3.70
2023-05-06T15:09:31.196Z,3.83
2023-05-06T15:11:58.503Z,4.30
2023-05-06T15:14:25.557Z,3.75
2023-05-06T15:16:59.023Z,3.65
2023-05-06T15:19:26.184Z,4.07
2023-05-06T15:21:53.065Z,3.38
2023-05-06T15:24:20.023Z,3.72
2023-05-06T15:26:47.038Z,3.63
2023-05-06T15:29:14.045Z,3.10
2023-05-06T15:31:43.758Z,4.35
2023-05-06T15:34:11.825Z,4.78
2023-05-06T15:36:40.285Z,3.20
2023-05-06T15:39:07.768Z,4.25
2023-05-06T15:41:36.397Z,4.00
2023-05-06T15:44:06.182Z,3.75
2023-05-06T15:46:33.669Z,3.80
2023-05-06T15:51:30.999Z,3.00
2023-05-06T15:53:58.266Z,3.60
2023-05-06T15:56:26.998Z,4.30
2023-05-06T15:58:55.369Z,3.80
2023-05-06T16:01:40.261Z,4.13
2023-05-06T16:04:09.654Z,4.75
2023-05-06T16:06:36.717Z,5.15
2023-05-06T16:09:04.145Z,4.22
2023-05-06T16:11:31.429Z,4.10
2023-05-06T16:13:58.970Z,4.68
2023-05-06T16:16:26.037Z,3.60
2023-05-06T16:18:53.222Z,3.80
2023-05-06T16:21:20.581Z,4.00
2023-05-06T16:23:47.591Z,3.78
2023-05-06T16:26:14.929Z,2.42
2023-05-06T16:28:41.911Z,2.90
2023-05-06T16:31:09.247Z,2.80
2023-05-06T16:33:36.274Z,2.53
2023-05-06T16:36:03.756Z,2.90
2023-05-06T16:38:30.798Z,3.85
2023-05-06T16:40:58.191Z,4.05
2023-05-06T16:43:25.143Z,4.15
2023-05-06T16:45:52.204Z,3.40
2023-05-06T16:48:19.424Z,4.03
2023-05-06T16:50:46.498Z,3.67
2023-05-06T16:53:13.618Z,3.65
2023-05-06T16:55:49.931Z,3.60
2023-05-06T16:58:16.999Z,4.10
2023-05-06T17:00:44.099Z,4.53
2023-05-06T17:03:11.881Z,4.00
2023-05-06T17:05:39.823Z,4.85
2023-05-06T17:08:07.339Z,3.47
2023-05-06T17:10:35.035Z,3.15
2023-05-06T17:13:02.117Z,3.38
2023-05-06T17:15:29.103Z,3.10
2023-05-06T17:17:56.073Z,3.28
2023-05-06T17:20:23.504Z,3.88
2023-05-06T17:22:50.577Z,3.10
2023-05-06T17:25:17.727Z,4.00
2023-05-06T17:27:45.122Z,4.18
2023-05-06T17:30:12.730Z,4.55
2023-05-06T17:32:40.282Z,3.80
2023-05-06T17:35:08.115Z,3.80
2023-05-06T17:37:35.387Z,4.47
2023-05-06T17:40:03.359Z,4.75
2023-05-06T17:42:31.640Z,3.80
2023-05-06T17:44:58.678Z,3.80
2023-05-06T17:47:30.267Z,3.55
2023-05-06T17:49:57.789Z,3.95
2023-05-06T17:52:28.523Z,4.20
2023-05-06T17:57:28.617Z,3.97
2023-05-06T17:59:55.875Z,3.40
2023-05-06T18:02:23.089Z,3.72
2023-05-06T18:04:50.394Z,3.30
2023-05-06T18:07:17.534Z,3.53
2023-05-06T18:09:52.077Z,4.90
2023-05-06T18:14:47.679Z,3.88
2023-05-06T18:17:14.616Z,4.20
2023-05-06T18:19:41.508Z,4.28
2023-05-06T18:22:08.461Z,4.50
2023-05-06T18:24:37.423Z,3.30
2023-05-06T18:27:04.652Z,4.30
2023-05-06T18:29:33.215Z,4.35
2023-05-06T18:32:02.139Z,4.60
2023-05-06T18:34:29.138Z,4.05
2023-05-06T18:36:57.975Z,4.40
2023-05-06T18:39:25.537Z,4.28
2023-05-06T18:41:52.623Z,4.50
2023-05-06T18:44:19.551Z,4.15
2023-05-06T18:46:46.590Z,4.30
2023-05-06T18:49:16.536Z,4.60
2023-05-06T18:51:43.532Z,5.03
2023-05-06T18:54:10.645Z,4.70
2023-05-06T18:56:37.687Z,4.43
2023-05-06T18:59:04.637Z,4.30
2023-05-06T19:01:31.641Z,5.28
2023-05-06T19:03:58.660Z,4.63
2023-05-06T19:06:25.890Z,4.88
2023-05-06T19:08:53.696Z,5.55
2023-05-06T19:11:21.280Z,4.65
2023-05-06T19:13:48.255Z,5.20
2023-05-06T19:16:15.292Z,3.78
2023-05-06T19:18:42.253Z,4.43
2023-05-06T19:21:10.934Z,4.95
2023-05-06T19:23:38.012Z,4.90
2023-05-06T19:26:10.026Z,4.57
2023-05-06T19:28:37.249Z,3.83
2023-05-06T19:31:09.800Z,4.32
2023-05-06T19:33:37.940Z,4.13
2023-05-06T19:36:05.410Z,4.50
2023-05-06T19:38:32.550Z,4.28
2023-05-06T19:40:59.462Z,4.47
2023-05-06T19:43:26.531Z,4.65
2023-05-06T19:45:54.068Z,4.90
2023-05-06T19:48:22.292Z,4.90
2023-05-06T19:50:49.646Z,5.60
2023-05-06T19:53:17.859Z,5.40
2023-05-06T19:55:44.848Z,4.45
2023-05-06T19:58:14.206Z,5.00
2023-05-06T20:00:41.246Z,5.88
2023-05-06T20:03:09.660Z,6.38
2023-05-06T20:05:37.948Z,5.25
2023-05-06T20:08:10.881Z,6.15
2023-05-06T20:10:39.276Z,5.82
2023-05-06T20:13:07.116Z,6.32
2023-05-06T20:15:35.574Z,5.75
2023-05-06T20:18:02.988Z,5.70
2023-05-06T20:20:34.706Z,5.88
2023-05-06T20:23:04.707Z,5.93
2023-05-06T20:25:32.401Z,5.90
2023-05-06T20:27:59.502Z,5.25
2023-05-06T20:30:27.023Z,5.10
2023-05-06T20:32:54.030Z,4.75
2023-05-06T20:35:21.085Z,4.18
2023-05-06T20:37:48.098Z,4.28
2023-05-06T20:40:15.380Z,4.40
2023-05-06T20:42:42.306Z,5.43
2023-05-06T20:45:09.759Z,6.40
2023-05-06T20:47:37.047Z,4.40
2023-05-06T20:50:04.425Z,4.03
2023-05-06T20:52:31.770Z,4.35
2023-05-06T20:54:58.849Z,3.60
2023-05-06T20:57:25.856Z,3.83
2023-05-06T20:59:53.032Z,4.53
2023-05-06T21:02:20.163Z,3.58
2023-05-06T21:04:47.471Z,3.65
2023-05-06T21:07:14.848Z,3.25
2023-05-06T21:09:41.809Z,3.88
2023-05-06T21:12:08.950Z,3.50
2023-05-06T21:14:36.047Z,3.47
2023-05-06T21:17:03.088Z,3.65
2023-05-06T21:19:30.062Z,4.30
2023-05-06T21:21:58.685Z,3.78
2023-05-06T21:24:25.657Z,4.10
2023-05-06T21:26:53.776Z,4.10
2023-05-06T21:29:21.727Z,4.70
2023-05-06T21:31:48.805Z,6.90
2023-05-06T21:34:16.003Z,6.38
2023-05-06T21:36:43.071Z,6.05
2023-05-06T21:39:12.196Z,6.00
2023-05-06T21:41:40.186Z,5.63
2023-05-06T21:44:08.467Z,5.55
2023-05-06T21:46:36.858Z,5.50
2023-05-06T21:49:04.271Z,6.50
2023-05-06T21:51:33.218Z,5.68
2023-05-06T21:54:00.966Z,5.80
2023-05-06T21:56:28.361Z,5.80
2023-05-06T21:58:58.188Z,4.90
2023-05-06T22:01:26.404Z,4.97
2023-05-06T22:03:54.251Z,5.00
2023-05-06T22:06:22.004Z,5.22
2023-05-06T22:08:49.201Z,4.88
2023-05-06T22:11:16.611Z,5.05
2023-05-06T22:13:43.483Z,4.53
2023-05-06T22:16:10.424Z,4.13
2023-05-06T22:18:41.281Z,4.32
2023-05-06T22:21:09.906Z,4.32
2023-05-06T22:23:37.382Z,4.45
2023-05-06T22:26:04.391Z,3.80
2023-05-06T22:28:31.400Z,4.53
2023-05-06T22:30:58.642Z,5.15
2023-05-06T22:33:27.094Z,5.00
2023-05-06T22:35:55.526Z,5.22
2023-05-06T22:38:23.429Z,5.10
2023-05-06T22:40:50.551Z,4.93
2023-05-06T22:43:17.450Z,4.30
2023-05-06T22:45:45.900Z,4.45
2023-05-06T22:48:13.068Z,5.45
2023-05-06T22:50:40.168Z,5.38
2023-05-06T22:53:15.028Z,6.38
2023-05-06T22:55:42.944Z,6.57
2023-05-06T22:58:09.933Z,5.65
2023-05-06T23:00:37.315Z,5.78
2023-05-06T23:03:06.065Z,5.20
2023-05-06T23:05:33.636Z,5.13
2023-05-06T23:08:00.707Z,4.88
2023-05-06T23:10:28.091Z,4.65
2023-05-06T23:12:54.983Z,4.00
2023-05-06T23:15:22.091Z,3.40
2023-05-06T23:17:49.006Z,3.28
2023-05-06T23:20:17.282Z,3.60
2023-05-06T23:22:44.200Z,3.67
2023-05-06T23:25:11.834Z,3.75
2023-05-06T23:27:40.546Z,3.42
2023-05-06T23:30:08.783Z,4.28
2023-05-06T23:32:36.026Z,3.42
2023-05-06T23:35:03.157Z,3.50
2023-05-06T23:37:30.229Z,4.57
2023-05-06T23:39:59.044Z,4.43
2023-05-06T23:42:26.392Z,4.95
2023-05-06T23:44:53.710Z,5.38
2023-05-06T23:47:20.762Z,5.97
2023-05-06T23:49:47.754Z,5.70
2023-05-06T23:52:14.683Z,5.03
2023-05-06T23:54:41.674Z,5.85
2023-05-06T23:57:08.609Z,5.13
2023-05-06T23:59:35.629Z,4.18
